createdAt,value
2022-12-11T00:00:47.795Z,138.05
2022-12-11T00:03:16.466Z,156.57
2022-12-11T00:05:44.778Z,151.27
2022-12-11T00:08:12.536Z,143.60
2022-12-11T00:10:39.157Z,48.55
2022-12-11T00:13:05.782Z,147.27
2022-12-11T00:15:32.424Z,65.18
2022-12-11T00:17:59.049Z,150.60
2022-12-11T00:20:25.611Z,148.07
2022-12-11T00:22:52.109Z,142.85
2022-12-11T00:25:18.687Z,147.93
2022-12-11T00:27:47.161Z,141.57
2022-12-11T00:30:14.601Z,141.30
2022-12-11T00:32:41.155Z,151.25
2022-12-11T00:35:08.512Z,148.10
2022-12-11T00:37:35.510Z,55.17
2022-12-11T00:40:02.142Z,151.45
2022-12-11T00:42:28.962Z,52.40
2022-12-11T00:44:56.388Z,141.90
2022-12-11T00:47:22.933Z,141.30
2022-12-11T00:49:50.197Z,136.43
2022-12-11T00:52:17.948Z,55.92
2022-12-11T00:54:44.953Z,141.68
2022-12-11T00:57:11.479Z,44.95
2022-12-11T00:59:38.640Z,146.60
2022-12-11T01:02:05.190Z,53.00
2022-12-11T01:04:31.753Z,138.68
2022-12-11T01:06:58.378Z,130.70
2022-12-11T01:09:43.702Z,132.05
2022-12-11T01:12:10.280Z,138.25
2022-12-11T01:14:36.830Z,50.38
2022-12-11T01:17:03.598Z,62.88
2022-12-11T01:19:30.186Z,123.97
2022-12-11T01:21:56.758Z,58.72
2022-12-11T01:24:23.288Z,131.10
2022-12-11T01:26:49.789Z,135.38
2022-12-11T01:29:16.369Z,124.82
2022-12-11T01:31:42.949Z,122.22
2022-12-11T01:34:09.458Z,126.53
2022-12-11T01:36:36.034Z,125.28
2022-12-11T01:39:02.589Z,43.67
2022-12-11T01:41:29.164Z,39.35
2022-12-11T01:44:15.812Z,118.18
2022-12-11T01:46:43.179Z,112.88
2022-12-11T01:49:12.918Z,110.78
2022-12-11T01:51:45.914Z,113.97
2022-12-11T01:54:14.819Z,114.03
2022-12-11T01:56:43.224Z,57.20
2022-12-11T01:59:11.088Z,107.20
2022-12-11T02:01:45.199Z,40.47
2022-12-11T02:04:15.636Z,48.53
2022-12-11T02:06:45.185Z,47.38
2022-12-11T02:09:18.861Z,105.40
2022-12-11T02:12:03.100Z,109.13
2022-12-11T02:14:32.553Z,96.90
2022-12-11T02:17:06.838Z,102.18
2022-12-11T02:19:48.238Z,98.13
2022-12-11T02:22:28.647Z,44.63
2022-12-11T02:25:09.081Z,96.50
2022-12-11T02:27:45.972Z,40.88
2022-12-11T02:30:16.227Z,93.88
2022-12-11T02:32:53.611Z,91.25
2022-12-11T02:35:30.251Z,92.68
2022-12-11T02:38:02.656Z,43.05
2022-12-11T02:40:32.435Z,41.67
2022-12-11T02:43:03.025Z,92.05
2022-12-11T02:45:31.156Z,82.30
2022-12-11T02:48:00.978Z,87.18
2022-12-11T02:50:28.859Z,91.22
2022-12-11T02:52:57.527Z,37.92
2022-12-11T02:55:26.323Z,87.18
2022-12-11T02:58:15.811Z,41.20
2022-12-11T03:00:42.376Z,87.90
2022-12-11T03:03:08.946Z,34.80
2022-12-11T03:05:35.610Z,82.15
2022-12-11T03:08:02.380Z,81.57
2022-12-11T03:10:29.019Z,38.08
2022-12-11T03:12:58.981Z,42.47
2022-12-11T03:15:41.413Z,35.67
2022-12-11T03:18:49.976Z,82.60
2022-12-11T03:21:34.954Z,72.25
2022-12-11T03:24:48.854Z,72.43
2022-12-11T03:27:36.585Z,71.53
2022-12-11T03:30:11.567Z,36.15
2022-12-11T03:32:49.263Z,35.00
2022-12-11T03:35:36.810Z,34.63
2022-12-11T03:38:08.757Z,67.18
2022-12-11T03:43:04.873Z,61.50
2022-12-11T03:45:33.520Z,61.42
2022-12-11T03:48:02.632Z,59.63
2022-12-11T03:50:32.067Z,35.00
2022-12-11T03:53:00.196Z,53.35
2022-12-11T03:55:28.150Z,50.75
2022-12-11T03:57:54.797Z,58.35
2022-12-11T04:00:21.660Z,31.40
2022-12-11T04:03:13.010Z,51.72
2022-12-11T04:05:45.415Z,50.05
2022-12-11T04:08:12.380Z,28.83
2022-12-11T04:10:40.406Z,44.38
2022-12-11T04:13:07.819Z,49.03
2022-12-11T04:15:34.853Z,44.03
2022-12-11T04:18:30.551Z,27.70
2022-12-11T04:21:15.513Z,24.20
2022-12-11T04:24:00.814Z,27.92
2022-12-11T04:26:27.370Z,21.92
2022-12-11T04:28:54.316Z,43.67
2022-12-11T04:31:22.433Z,45.92
2022-12-11T04:33:49.293Z,43.65
2022-12-11T04:36:15.984Z,27.77
2022-12-11T04:38:42.531Z,43.17
2022-12-11T04:41:12.594Z,42.33
2022-12-11T04:43:39.869Z,27.80
2022-12-11T04:46:12.605Z,18.98
2022-12-11T04:48:40.039Z,38.33
2022-12-11T04:51:07.688Z,38.45
2022-12-11T04:53:35.128Z,21.23
2022-12-11T04:56:01.773Z,25.50
2022-12-11T04:58:28.447Z,38.53
2022-12-11T05:00:54.954Z,36.63
2022-12-11T05:03:21.466Z,36.78
2022-12-11T05:05:52.636Z,17.38
2022-12-11T05:08:20.717Z,20.20
2022-12-11T05:10:58.440Z,33.72
2022-12-11T05:13:25.296Z,35.08
2022-12-11T05:15:51.874Z,34.85
2022-12-11T05:18:18.441Z,29.10
2022-12-11T05:20:45.129Z,30.95
2022-12-11T05:23:11.670Z,32.35
2022-12-11T05:25:38.183Z,18.38
2022-12-11T05:28:04.815Z,32.90
2022-12-11T05:30:32.638Z,29.67
2022-12-11T05:32:59.184Z,28.45
2022-12-11T05:35:25.723Z,29.80
2022-12-11T05:37:52.301Z,29.65
2022-12-11T05:40:18.856Z,29.05
2022-12-11T05:42:45.423Z,31.50
2022-12-11T05:45:12.195Z,22.05
2022-12-11T05:47:39.090Z,28.25
2022-12-11T05:50:05.991Z,29.52
2022-12-11T05:52:33.057Z,30.45
2022-12-11T05:54:59.715Z,20.45
2022-12-11T05:57:26.226Z,16.48
2022-12-11T05:59:52.723Z,28.95
2022-12-11T06:02:19.423Z,24.23
2022-12-11T06:04:46.056Z,26.55
2022-12-11T06:07:14.036Z,27.75
2022-12-11T06:09:40.533Z,26.90
2022-12-11T06:12:07.068Z,16.88
2022-12-11T06:14:33.652Z,20.05
2022-12-11T06:17:01.478Z,25.73
2022-12-11T06:19:31.901Z,17.38
2022-12-11T06:22:01.619Z,28.23
2022-12-11T06:24:28.121Z,29.20
2022-12-11T06:26:54.623Z,26.42
2022-12-11T06:29:21.137Z,27.23
2022-12-11T06:31:47.719Z,28.10
2022-12-11T06:34:14.234Z,27.20
2022-12-11T06:36:40.772Z,26.60
2022-12-11T06:39:07.266Z,27.90
2022-12-11T06:41:33.874Z,27.50
2022-12-11T06:44:00.391Z,17.67
2022-12-11T06:46:26.954Z,27.05
2022-12-11T06:48:53.538Z,28.83
2022-12-11T06:51:22.465Z,28.15
2022-12-11T06:53:53.761Z,27.63
2022-12-11T06:56:21.526Z,17.40
2022-12-11T06:58:48.333Z,17.98
2022-12-11T07:01:20.990Z,19.95
2022-12-11T07:03:48.275Z,27.42
2022-12-11T07:06:14.925Z,30.40
2022-12-11T07:08:41.582Z,28.73
2022-12-11T07:11:14.601Z,29.90
2022-12-11T07:13:42.179Z,28.85
2022-12-11T07:16:11.090Z,29.60
2022-12-11T07:18:42.517Z,30.13
2022-12-11T07:21:11.999Z,23.65
2022-12-11T07:23:39.218Z,29.13
2022-12-11T07:26:09.698Z,31.05
2022-12-11T07:28:36.528Z,27.75
2022-12-11T07:31:14.887Z,22.88
2022-12-11T07:33:42.610Z,32.30
2022-12-11T07:36:11.042Z,22.85
2022-12-11T07:38:37.730Z,30.77
2022-12-11T07:41:06.263Z,29.63
2022-12-11T07:43:33.819Z,19.88
2022-12-11T07:46:05.632Z,28.75
2022-12-11T07:48:32.375Z,30.67
2022-12-11T07:51:15.050Z,30.52
2022-12-11T07:53:48.472Z,31.30
2022-12-11T07:56:16.215Z,31.67
2022-12-11T07:58:43.125Z,33.30
2022-12-11T08:01:24.206Z,34.03
2022-12-11T08:03:50.864Z,21.60
2022-12-11T08:06:18.038Z,32.08
2022-12-11T08:08:44.973Z,29.63
2022-12-11T08:11:14.230Z,22.83
2022-12-11T08:13:41.519Z,30.77
2022-12-11T08:16:10.513Z,31.60
2022-12-11T08:18:37.855Z,32.28
2022-12-11T08:21:08.015Z,20.60
2022-12-11T08:23:34.998Z,32.60
2022-12-11T08:26:10.768Z,33.58
2022-12-11T08:28:37.488Z,22.42
2022-12-11T08:31:05.893Z,33.15
2022-12-11T08:33:32.727Z,30.98
2022-12-11T08:36:02.722Z,33.70
2022-12-11T08:38:29.331Z,35.65
2022-12-11T08:40:55.912Z,21.52
2022-12-11T08:43:22.498Z,32.47
2022-12-11T08:45:49.377Z,33.53
2022-12-11T08:48:16.260Z,31.98
2022-12-11T08:50:43.269Z,34.33
2022-12-11T08:53:09.805Z,32.70
2022-12-11T08:55:36.347Z,35.80
2022-12-11T08:58:03.180Z,19.52
2022-12-11T09:00:29.659Z,19.67
2022-12-11T09:02:56.195Z,36.85
2022-12-11T09:05:22.753Z,34.95
2022-12-11T09:07:49.330Z,22.00
2022-12-11T09:10:15.912Z,20.20
2022-12-11T09:12:42.736Z,23.30
2022-12-11T09:15:09.860Z,32.38
2022-12-11T09:17:36.662Z,36.15
2022-12-11T09:20:04.089Z,21.23
2022-12-11T09:22:32.984Z,35.00
2022-12-11T09:24:59.602Z,17.70
2022-12-11T09:27:26.102Z,21.73
2022-12-11T09:29:52.637Z,36.05
2022-12-11T09:32:19.139Z,38.92
2022-12-11T09:34:45.843Z,35.45
2022-12-11T09:37:12.435Z,35.22
2022-12-11T09:39:38.964Z,37.13
2022-12-11T09:42:15.545Z,35.08
2022-12-11T09:44:53.487Z,36.20
2022-12-11T09:47:42.516Z,36.63
2022-12-11T09:50:09.036Z,34.38
2022-12-11T09:52:58.250Z,35.08
2022-12-11T09:55:29.534Z,22.00
2022-12-11T09:58:25.601Z,20.58
2022-12-11T10:01:07.569Z,35.90
2022-12-11T10:03:55.732Z,37.58
2022-12-11T10:06:34.363Z,36.85
2022-12-11T10:09:08.820Z,36.13
2022-12-11T10:12:01.133Z,37.15
2022-12-11T10:17:07.227Z,40.17
2022-12-11T10:19:34.790Z,38.85
2022-12-11T10:22:02.363Z,38.28
2022-12-11T10:25:09.961Z,24.17
2022-12-11T10:27:34.823Z,40.97
2022-12-11T10:30:24.486Z,38.95
2022-12-11T10:32:52.739Z,41.05
2022-12-11T10:35:31.161Z,38.60
2022-12-11T10:38:11.693Z,37.75
2022-12-11T10:40:42.804Z,38.33
2022-12-11T10:43:09.353Z,22.90
2022-12-11T10:45:36.189Z,26.60
2022-12-11T10:48:13.152Z,23.00
2022-12-11T10:50:40.030Z,39.28
2022-12-11T10:53:06.877Z,36.42
2022-12-11T10:55:45.197Z,33.70
2022-12-11T10:58:18.702Z,23.20
2022-12-11T11:00:45.787Z,22.15
2022-12-11T11:03:24.716Z,40.10
2022-12-11T11:06:22.221Z,27.30
2022-12-11T11:08:54.579Z,25.73
2022-12-11T11:11:27.233Z,37.03
2022-12-11T11:14:13.191Z,20.02
2022-12-11T11:16:42.332Z,36.35
2022-12-11T11:19:19.710Z,35.92
2022-12-11T11:21:52.556Z,35.97
2022-12-11T11:24:34.971Z,39.33
2022-12-11T11:27:13.244Z,37.30
2022-12-11T11:29:41.996Z,33.58
2022-12-11T11:32:20.263Z,24.35
2022-12-11T11:34:46.819Z,36.83
2022-12-11T11:37:30.037Z,36.97
2022-12-11T11:40:04.211Z,38.63
2022-12-11T11:42:52.078Z,23.98
2022-12-11T11:45:33.448Z,28.50
2022-12-11T11:48:15.384Z,22.35
2022-12-11T11:50:46.303Z,35.60
2022-12-11T11:53:21.492Z,36.22
2022-12-11T11:56:12.575Z,25.20
2022-12-11T11:58:44.538Z,35.47
2022-12-11T12:03:47.490Z,36.80
2022-12-11T12:06:34.797Z,34.13
2022-12-11T12:09:14.934Z,36.08
2022-12-11T12:11:49.505Z,38.63
2022-12-11T12:14:51.244Z,36.00
2022-12-11T12:17:42.796Z,36.50
2022-12-11T12:20:29.546Z,19.35
2022-12-11T12:23:07.303Z,37.78
2022-12-11T12:25:53.247Z,35.38
2022-12-11T12:28:31.920Z,37.38
2022-12-11T12:31:23.118Z,40.35
2022-12-11T12:34:26.798Z,23.90
2022-12-11T12:37:17.357Z,26.05
2022-12-11T12:39:52.852Z,36.17
2022-12-11T12:42:53.374Z,35.17
2022-12-11T12:45:32.061Z,33.63
2022-12-11T12:47:58.647Z,36.90
2022-12-11T12:50:29.420Z,39.05
2022-12-11T12:52:56.972Z,27.52
2022-12-11T12:55:27.135Z,34.67
2022-12-11T12:57:57.763Z,34.67
2022-12-11T13:00:34.526Z,36.00
2022-12-11T13:03:13.360Z,18.35
2022-12-11T13:05:43.176Z,36.70
2022-12-11T13:08:11.552Z,36.25
2022-12-11T13:10:41.787Z,35.17
2022-12-11T13:13:31.130Z,34.30
2022-12-11T13:16:24.378Z,35.22
2022-12-11T13:18:51.375Z,34.88
2022-12-11T13:21:32.019Z,29.83
2022-12-11T13:24:13.598Z,31.90
2022-12-11T13:26:40.736Z,34.83
2022-12-11T13:29:37.673Z,30.00
2022-12-11T13:32:10.257Z,34.33
2022-12-11T13:34:40.489Z,31.65
2022-12-11T13:37:20.446Z,30.95
2022-12-11T13:39:47.557Z,30.95
2022-12-11T13:42:55.629Z,30.33
2022-12-11T13:45:29.832Z,33.22
2022-12-11T13:47:58.092Z,31.83
2022-12-11T13:50:29.908Z,28.15
2022-12-11T13:52:58.732Z,28.98
2022-12-11T13:55:31.406Z,30.38
2022-12-11T13:57:58.642Z,18.05
2022-12-11T14:00:28.427Z,31.75
2022-12-11T14:02:57.217Z,31.02
2022-12-11T14:05:24.413Z,20.90
2022-12-11T14:07:55.215Z,31.75
2022-12-11T14:10:27.255Z,30.33
2022-12-11T14:15:31.386Z,29.50
2022-12-11T14:17:59.440Z,28.23
2022-12-11T14:20:32.692Z,27.45
2022-12-11T14:23:17.415Z,29.05
2022-12-11T14:25:53.327Z,25.83
2022-12-11T14:28:21.014Z,25.48
2022-12-11T14:30:51.768Z,27.15
2022-12-11T14:33:22.830Z,28.20
2022-12-11T14:35:50.747Z,15.43
2022-12-11T14:38:23.439Z,24.90
2022-12-11T14:40:55.225Z,23.73
2022-12-11T14:43:31.515Z,20.33
2022-12-11T14:46:07.407Z,29.17
2022-12-11T14:48:44.618Z,24.92
2022-12-11T14:51:14.343Z,14.63
2022-12-11T14:53:46.653Z,26.23
2022-12-11T14:56:23.895Z,26.10
2022-12-11T14:59:19.548Z,26.13
2022-12-11T15:01:56.608Z,24.42
2022-12-11T15:04:28.904Z,28.23
2022-12-11T15:06:55.946Z,30.75
2022-12-11T15:09:37.710Z,31.08
2022-12-11T15:12:12.549Z,18.63
2022-12-11T15:15:00.736Z,29.70
2022-12-11T15:17:30.679Z,29.38
2022-12-11T15:20:07.390Z,31.30
2022-12-11T15:22:35.541Z,28.27
2022-12-11T15:25:02.519Z,28.17
2022-12-11T15:27:39.680Z,24.17
2022-12-11T15:30:26.900Z,28.90
2022-12-11T15:33:03.718Z,27.70
2022-12-11T15:35:30.533Z,28.35
2022-12-11T15:37:58.364Z,28.55
2022-12-11T15:40:26.459Z,30.48
2022-12-11T15:42:54.896Z,21.70
2022-12-11T15:45:24.600Z,28.65
2022-12-11T15:47:52.207Z,23.90
2022-12-11T15:50:23.091Z,31.50
2022-12-11T15:52:50.767Z,30.52
2022-12-11T15:55:18.331Z,30.38
2022-12-11T15:57:52.116Z,23.25
2022-12-11T16:00:20.077Z,27.35
2022-12-11T16:02:46.981Z,31.30
2022-12-11T16:05:14.856Z,30.70
2022-12-11T16:07:41.946Z,31.02
2022-12-11T16:10:14.899Z,32.03
2022-12-11T16:12:42.769Z,21.00
2022-12-11T16:15:11.181Z,33.10
2022-12-11T16:17:38.561Z,25.48
2022-12-11T16:20:06.133Z,29.58
2022-12-11T16:22:32.654Z,29.63
2022-12-11T16:24:59.261Z,30.55
2022-12-11T16:27:25.809Z,31.00
2022-12-11T16:29:52.423Z,30.25
2022-12-11T16:32:19.918Z,30.10
2022-12-11T16:34:46.976Z,31.00
2022-12-11T16:37:14.122Z,35.97
2022-12-11T16:39:42.443Z,34.40
2022-12-11T16:42:08.947Z,36.50
2022-12-11T16:44:39.542Z,29.70
2022-12-11T16:47:09.020Z,34.78
2022-12-11T16:49:35.517Z,31.52
2022-12-11T16:52:02.056Z,30.08
2022-12-11T16:54:28.607Z,29.00
2022-12-11T16:56:55.163Z,30.33
2022-12-11T16:59:21.696Z,30.35
2022-12-11T17:01:50.391Z,31.63
2022-12-11T17:04:17.081Z,18.10
2022-12-11T17:06:43.649Z,27.67
2022-12-11T17:09:11.220Z,26.77
2022-12-11T17:11:37.747Z,27.35
2022-12-11T17:14:04.258Z,27.33
2022-12-11T17:16:31.355Z,19.55
2022-12-11T17:18:58.154Z,26.40
2022-12-11T17:21:24.796Z,26.85
2022-12-11T17:23:51.948Z,25.13
2022-12-11T17:26:18.811Z,26.67
2022-12-11T17:28:45.397Z,25.88
2022-12-11T17:31:15.560Z,28.00
2022-12-11T17:33:42.628Z,39.80
2022-12-11T17:36:12.213Z,41.80
2022-12-11T17:38:38.904Z,37.55
2022-12-11T17:41:08.922Z,29.23
2022-12-11T17:43:35.425Z,21.27
2022-12-11T17:46:02.209Z,18.27
2022-12-11T17:48:28.839Z,28.52
2022-12-11T17:50:55.447Z,26.25
2022-12-11T17:53:23.352Z,26.15
2022-12-11T17:55:51.688Z,26.10
2022-12-11T17:58:21.628Z,25.50
2022-12-11T18:00:51.513Z,26.70
2022-12-11T18:03:18.569Z,25.08
2022-12-11T18:05:47.519Z,25.35
2022-12-11T18:08:15.650Z,19.30
2022-12-11T18:10:42.625Z,27.88
2022-12-11T18:13:09.799Z,26.88
2022-12-11T18:15:36.490Z,25.65
2022-12-11T18:18:03.827Z,15.82
2022-12-11T18:20:31.551Z,26.23
2022-12-11T18:22:58.555Z,23.60
2022-12-11T18:25:25.330Z,25.95
2022-12-11T18:27:52.123Z,24.73
2022-12-11T18:30:18.679Z,24.88
2022-12-11T18:32:45.281Z,25.05
2022-12-11T18:35:12.251Z,25.83
2022-12-11T18:37:39.296Z,24.75
2022-12-11T18:40:07.137Z,18.10
2022-12-11T18:42:34.057Z,25.83
2022-12-11T18:45:01.461Z,25.98
2022-12-11T18:47:28.072Z,24.80
2022-12-11T18:49:54.597Z,24.98
2022-12-11T18:52:21.115Z,25.85
2022-12-11T18:54:47.670Z,29.92
2022-12-11T18:57:16.080Z,28.95
2022-12-11T18:59:42.658Z,26.60
2022-12-11T19:02:11.269Z,27.10
2022-12-11T19:04:37.817Z,25.73
2022-12-11T19:07:04.435Z,27.08
2022-12-11T19:09:35.420Z,21.55
2022-12-11T19:12:05.097Z,20.10
2022-12-11T19:14:31.625Z,25.00
2022-12-11T19:16:58.293Z,26.63
2022-12-11T19:19:24.927Z,28.52
2022-12-11T19:21:51.594Z,29.80
2022-12-11T19:24:21.806Z,29.30
2022-12-11T19:26:48.410Z,21.83
2022-12-11T19:29:32.362Z,27.17
2022-12-11T19:32:01.252Z,29.35
2022-12-11T19:34:27.773Z,28.38
2022-12-11T19:36:54.343Z,28.25
2022-12-11T19:39:20.868Z,30.50
2022-12-11T19:41:47.758Z,27.90
2022-12-11T19:44:14.259Z,30.65
2022-12-11T19:46:41.106Z,23.13
2022-12-11T19:49:08.478Z,18.00
2022-12-11T19:51:41.053Z,19.80
2022-12-11T19:54:11.242Z,32.08
2022-12-11T19:56:38.080Z,32.95
2022-12-11T19:59:07.226Z,31.02
2022-12-11T20:01:36.568Z,28.83
2022-12-11T20:04:14.451Z,33.58
2022-12-11T20:06:43.959Z,34.20
2022-12-11T20:09:12.177Z,24.17
2022-12-11T20:11:40.943Z,19.50
2022-12-11T20:14:07.744Z,31.83
2022-12-11T20:17:02.220Z,33.90
2022-12-11T20:19:20.922Z,31.95
2022-12-11T20:21:47.990Z,31.30
2022-12-11T20:24:14.554Z,35.90
2022-12-11T20:26:41.137Z,39.20
2022-12-11T20:29:08.304Z,37.40
2022-12-11T20:31:36.549Z,34.70
2022-12-11T20:34:04.303Z,33.63
2022-12-11T20:36:31.040Z,25.13
2022-12-11T20:38:57.696Z,33.55
2022-12-11T20:41:25.601Z,27.02
2022-12-11T20:43:55.484Z,34.70
2022-12-11T20:46:25.198Z,33.15
2022-12-11T20:48:52.437Z,24.05
2022-12-11T20:51:25.685Z,31.33
2022-12-11T20:54:01.141Z,32.35
2022-12-11T20:56:30.502Z,24.20
2022-12-11T20:58:58.817Z,32.28
2022-12-11T21:01:28.069Z,31.60
2022-12-11T21:03:54.720Z,34.13
2022-12-11T21:06:31.140Z,34.13
2022-12-11T21:08:59.595Z,32.17
2022-12-11T21:11:26.199Z,20.50
2022-12-11T21:13:52.910Z,34.58
2022-12-11T21:16:20.139Z,34.90
2022-12-11T21:18:46.987Z,34.42
2022-12-11T21:21:14.030Z,33.85
2022-12-11T21:23:40.708Z,20.65
2022-12-11T21:26:07.249Z,23.95
2022-12-11T21:28:35.745Z,32.40
2022-12-11T21:31:05.244Z,26.38
2022-12-11T21:33:31.878Z,35.67
2022-12-11T21:35:59.856Z,32.65
2022-12-11T21:38:27.153Z,35.83
2022-12-11T21:40:54.490Z,27.58
2022-12-11T21:43:21.427Z,33.05
2022-12-11T21:46:04.041Z,34.80
2022-12-11T21:48:31.019Z,35.45
2022-12-11T21:51:16.570Z,34.40
2022-12-11T21:53:43.664Z,36.45
2022-12-11T21:56:12.986Z,24.83
2022-12-11T21:58:41.263Z,37.35
2022-12-11T22:01:37.054Z,35.25
2022-12-11T22:04:04.919Z,34.78
2022-12-11T22:06:31.817Z,20.92
2022-12-11T22:08:58.368Z,32.05
2022-12-11T22:11:28.940Z,24.02
2022-12-11T22:13:56.361Z,33.63
2022-12-11T22:16:23.138Z,33.63
2022-12-11T22:18:50.360Z,26.67
2022-12-11T22:21:17.100Z,32.72
2022-12-11T22:23:44.566Z,33.85
2022-12-11T22:26:23.240Z,32.83
2022-12-11T22:28:50.787Z,32.97
2022-12-11T22:31:20.554Z,24.00
2022-12-11T22:33:50.797Z,31.95
2022-12-11T22:36:20.099Z,31.30
2022-12-11T22:38:47.346Z,32.92
2022-12-11T22:41:24.424Z,32.40
2022-12-11T22:43:51.618Z,31.67
2022-12-11T22:46:20.786Z,29.13
2022-12-11T22:48:47.654Z,34.17
2022-12-11T22:51:14.568Z,32.17
2022-12-11T22:53:41.080Z,31.95
2022-12-11T22:56:09.527Z,25.38
2022-12-11T22:58:36.362Z,32.55
2022-12-11T23:01:07.638Z,17.90
2022-12-11T23:03:34.237Z,31.40
2022-12-11T23:06:05.036Z,30.35
2022-12-11T23:08:31.966Z,28.70
2022-12-11T23:10:58.778Z,33.80
2022-12-11T23:13:25.282Z,30.90
2022-12-11T23:15:51.841Z,30.58
2022-12-11T23:18:18.392Z,31.98
2022-12-11T23:20:44.899Z,32.45
2022-12-11T23:23:11.430Z,31.77
2022-12-11T23:25:38.027Z,32.38
2022-12-11T23:28:04.654Z,33.42
2022-12-11T23:30:31.294Z,33.55
2022-12-11T23:32:57.898Z,21.92
2022-12-11T23:35:24.401Z,32.05
2022-12-11T23:37:50.918Z,33.55
2022-12-11T23:40:17.671Z,32.08
2022-12-11T23:42:44.200Z,32.92
2022-12-11T23:45:11.069Z,24.95
2022-12-11T23:47:37.907Z,27.83
2022-12-11T23:50:04.743Z,34.47
2022-12-11T23:52:31.302Z,34.28
2022-12-11T23:54:57.793Z,34.97
2022-12-11T23:57:24.349Z,34.85
2022-12-11T23:59:50.826Z,32.58
